sensor_id;sensor_type;location;lat;lon;timestamp;temperature;humidity
4556;DHT22;2290;48.674;9.018;2022-07-01T00:01:58;16.90;99.90
4556;DHT22;2290;48.674;9.018;2022-07-01T00:04:25;16.70;99.90
4556;DHT22;2290;48.674;9.018;2022-07-01T00:06:53;16.50;99.90
4556;DHT22;2290;48.674;9.018;2022-07-01T00:09:19;16.40;99.90
4556;DHT22;2290;48.674;9.018;2022-07-01T00:11:44;16.40;99.90
4556;DHT22;2290;48.674;9.018;2022-07-01T00:14:10;16.00;99.90
4556;DHT22;2290;48.674;9.018;2022-07-01T00:16:35;15.90;99.90
4556;DHT22;2290;48.674;9.018;2022-07-01T00:19:02;15.80;99.90
4556;DHT22;2290;48.674;9.018;2022-07-01T00:21:28;16.00;99.90
4556;DHT22;2290;48.674;9.018;2022-07-01T00:23:53;16.00;99.90
4556;DHT22;2290;48.674;9.018;2022-07-01T00:26:19;16.30;99.90
4556;DHT22;2290;48.674;9.018;2022-07-01T00:28:44;16.20;99.90
4556;DHT22;2290;48.674;9.018;2022-07-01T00:31:10;16.30;99.90
4556;DHT22;2290;48.674;9.018;2022-07-01T00:33:35;16.30;99.90
4556;DHT22;2290;48.674;9.018;2022-07-01T00:36:01;16.60;99.90
4556;DHT22;2290;48.674;9.018;2022-07-01T00:38:27;16.50;99.90
4556;DHT22;2290;48.674;9.018;2022-07-01T00:40:53;16.50;99.90
4556;DHT22;2290;48.674;9.018;2022-07-01T00:43:19;16.60;99.90
4556;DHT22;2290;48.674;9.018;2022-07-01T00:45:49;16.70;99.90
4556;DHT22;2290;48.674;9.018;2022-07-01T00:48:15;16.70;99.90
4556;DHT22;2290;48.674;9.018;2022-07-01T00:50:41;16.70;99.90
4556;DHT22;2290;48.674;9.018;2022-07-01T00:53:06;16.70;99.90
4556;DHT22;2290;48.674;9.018;2022-07-01T00:55:32;16.80;99.90
4556;DHT22;2290;48.674;9.018;2022-07-01T00:57:58;16.70;99.90
4556;DHT22;2290;48.674;9.018;2022-07-01T01:00:24;16.70;99.90
4556;DHT22;2290;48.674;9.018;2022-07-01T01:02:51;16.80;99.90
4556;DHT22;2290;48.674;9.018;2022-07-01T01:05:17;17.00;99.90
4556;DHT22;2290;48.674;9.018;2022-07-01T01:07:43;16.80;99.90
4556;DHT22;2290;48.674;9.018;2022-07-01T01:10:09;16.80;99.90
4556;DHT22;2290;48.674;9.018;2022-07-01T01:12:35;16.70;99.90
4556;DHT22;2290;48.674;9.018;2022-07-01T01:15:02;16.70;99.90
4556;DHT22;2290;48.674;9.018;2022-07-01T01:17:28;16.70;99.90
4556;DHT22;2290;48.674;9.018;2022-07-01T01:19:53;16.70;99.90
4556;DHT22;2290;48.674;9.018;2022-07-01T01:22:19;16.70;99.90
4556;DHT22;2290;48.674;9.018;2022-07-01T01:24:46;16.60;99.90
4556;DHT22;2290;48.674;9.018;2022-07-01T01:27:13;16.60;99.90
4556;DHT22;2290;48.674;9.018;2022-07-01T01:29:39;16.40;99.90
4556;DHT22;2290;48.674;9.018;2022-07-01T01:32:06;16.50;99.90
4556;DHT22;2290;48.674;9.018;2022-07-01T01:34:37;16.50;99.90
4556;DHT22;2290;48.674;9.018;2022-07-01T01:37:04;16.50;99.90
4556;DHT22;2290;48.674;9.018;2022-07-01T01:39:30;16.40;99.90
4556;DHT22;2290;48.674;9.018;2022-07-01T01:41:56;16.40;99.90
4556;DHT22;2290;48.674;9.018;2022-07-01T01:44:21;16.30;99.90
4556;DHT22;2290;48.674;9.018;2022-07-01T01:46:47;16.30;99.90
4556;DHT22;2290;48.674;9.018;2022-07-01T01:49:12;16.30;99.90
4556;DHT22;2290;48.674;9.018;2022-07-01T01:51:38;16.10;99.90
4556;DHT22;2290;48.674;9.018;2022-07-01T01:54:04;16.00;99.90
4556;DHT22;2290;48.674;9.018;2022-07-01T01:56:30;15.90;99.90
4556;DHT22;2290;48.674;9.018;2022-07-01T01:58:57;15.90;99.90
4556;DHT22;2290;48.674;9.018;2022-07-01T02:01:23;15.70;99.90
4556;DHT22;2290;48.674;9.018;2022-07-01T02:03:51;15.70;99.90
4556;DHT22;2290;48.674;9.018;2022-07-01T02:06:18;15.60;99.90
4556;DHT22;2290;48.674;9.018;2022-07-01T02:08:44;15.70;99.90
4556;DHT22;2290;48.674;9.018;2022-07-01T02:11:10;17.40;99.90
4556;DHT22;2290;48.674;9.018;2022-07-01T02:13:36;15.70;99.90
4556;DHT22;2290;48.674;9.018;2022-07-01T02:16:02;15.60;99.90
4556;DHT22;2290;48.674;9.018;2022-07-01T02:18:28;15.50;99.90
4556;DHT22;2290;48.674;9.018;2022-07-01T02:20:54;15.40;99.90
4556;DHT22;2290;48.674;9.018;2022-07-01T02:23:20;15.40;99.90
4556;DHT22;2290;48.674;9.018;2022-07-01T02:25:45;15.30;99.90
4556;DHT22;2290;48.674;9.018;2022-07-01T02:28:14;15.30;99.90
4556;DHT22;2290;48.674;9.018;2022-07-01T02:30:40;15.70;99.90
4556;DHT22;2290;48.674;9.018;2022-07-01T02:33:06;15.10;99.90
4556;DHT22;2290;48.674;9.018;2022-07-01T02:35:33;14.90;99.90
4556;DHT22;2290;48.674;9.018;2022-07-01T02:37:59;14.80;99.90
4556;DHT22;2290;48.674;9.018;2022-07-01T02:40:24;14.80;99.90
4556;DHT22;2290;48.674;9.018;2022-07-01T02:42:50;14.80;99.90
4556;DHT22;2290;48.674;9.018;2022-07-01T02:45:15;14.80;99.90
4556;DHT22;2290;48.674;9.018;2022-07-01T02:47:41;14.80;99.90
4556;DHT22;2290;48.674;9.018;2022-07-01T02:50:10;14.70;99.90
4556;DHT22;2290;48.674;9.018;2022-07-01T02:52:37;14.80;99.90
4556;DHT22;2290;48.674;9.018;2022-07-01T02:55:05;15.00;99.90
4556;DHT22;2290;48.674;9.018;2022-07-01T02:57:32;14.60;99.90
4556;DHT22;2290;48.674;9.018;2022-07-01T02:59:57;14.70;99.90
4556;DHT22;2290;48.674;9.018;2022-07-01T03:02:23;14.60;99.90
4556;DHT22;2290;48.674;9.018;2022-07-01T03:04:50;14.70;99.90
4556;DHT22;2290;48.674;9.018;2022-07-01T03:07:17;14.70;99.90
4556;DHT22;2290;48.674;9.018;2022-07-01T03:09:43;14.70;99.90
4556;DHT22;2290;48.674;9.018;2022-07-01T03:12:13;14.70;99.90
4556;DHT22;2290;48.674;9.018;2022-07-01T03:14:52;14.60;99.90
4556;DHT22;2290;48.674;9.018;2022-07-01T03:17:18;14.60;99.90
4556;DHT22;2290;48.674;9.018;2022-07-01T03:19:45;14.70;99.90
4556;DHT22;2290;48.674;9.018;2022-07-01T03:22:11;14.80;99.90
4556;DHT22;2290;48.674;9.018;2022-07-01T03:24:36;14.80;99.90
4556;DHT22;2290;48.674;9.018;2022-07-01T03:27:02;14.80;99.90
4556;DHT22;2290;48.674;9.018;2022-07-01T03:29:28;14.80;99.90
4556;DHT22;2290;48.674;9.018;2022-07-01T03:31:54;14.90;99.90
4556;DHT22;2290;48.674;9.018;2022-07-01T03:34:19;15.00;99.90
4556;DHT22;2290;48.674;9.018;2022-07-01T03:36:45;14.90;99.90
4556;DHT22;2290;48.674;9.018;2022-07-01T03:39:10;15.00;99.90
4556;DHT22;2290;48.674;9.018;2022-07-01T03:41:36;15.00;99.90
4556;DHT22;2290;48.674;9.018;2022-07-01T03:44:01;15.00;99.90
4556;DHT22;2290;48.674;9.018;2022-07-01T03:46:27;15.10;99.90
4556;DHT22;2290;48.674;9.018;2022-07-01T03:48:58;15.00;99.90
4556;DHT22;2290;48.674;9.018;2022-07-01T03:51:24;14.90;99.90
4556;DHT22;2290;48.674;9.018;2022-07-01T03:53:49;15.50;99.90
4556;DHT22;2290;48.674;9.018;2022-07-01T03:56:33;14.80;99.90
4556;DHT22;2290;48.674;9.018;2022-07-01T03:58:59;14.80;99.90
4556;DHT22;2290;48.674;9.018;2022-07-01T04:01:25;14.80;99.90
4556;DHT22;2290;48.674;9.018;2022-07-01T04:03:50;15.00;99.90
4556;DHT22;2290;48.674;9.018;2022-07-01T04:06:16;15.10;99.90
4556;DHT22;2290;48.674;9.018;2022-07-01T04:08:42;15.20;99.90
4556;DHT22;2290;48.674;9.018;2022-07-01T04:11:08;15.30;99.90
4556;DHT22;2290;48.674;9.018;2022-07-01T04:13:35;15.30;99.90
4556;DHT22;2290;48.674;9.018;2022-07-01T04:16:02;15.00;99.90
4556;DHT22;2290;48.674;9.018;2022-07-01T04:18:28;15.00;99.90
4556;DHT22;2290;48.674;9.018;2022-07-01T04:20:54;15.10;99.90
4556;DHT22;2290;48.674;9.018;2022-07-01T04:23:38;15.20;99.90
4556;DHT22;2290;48.674;9.018;2022-07-01T04:26:04;15.40;99.90
4556;DHT22;2290;48.674;9.018;2022-07-01T04:28:29;15.40;99.90
4556;DHT22;2290;48.674;9.018;2022-07-01T04:30:55;15.50;99.90
4556;DHT22;2290;48.674;9.018;2022-07-01T04:33:21;15.50;99.90
4556;DHT22;2290;48.674;9.018;2022-07-01T04:35:46;15.50;99.90
4556;DHT22;2290;48.674;9.018;2022-07-01T04:38:12;15.50;99.90
4556;DHT22;2290;48.674;9.018;2022-07-01T04:40:37;15.50;99.90
4556;DHT22;2290;48.674;9.018;2022-07-01T04:43:03;15.50;99.90
4556;DHT22;2290;48.674;9.018;2022-07-01T04:45:28;15.60;99.90
4556;DHT22;2290;48.674;9.018;2022-07-01T04:47:54;15.60;99.90
4556;DHT22;2290;48.674;9.018;2022-07-01T04:50:20;15.60;99.90
4556;DHT22;2290;48.674;9.018;2022-07-01T04:52:45;15.50;99.90
4556;DHT22;2290;48.674;9.018;2022-07-01T04:55:11;15.40;99.90
4556;DHT22;2290;48.674;9.018;2022-07-01T04:57:36;15.50;99.90
4556;DHT22;2290;48.674;9.018;2022-07-01T05:00:02;15.50;99.90
4556;DHT22;2290;48.674;9.018;2022-07-01T05:02:28;15.60;99.90
4556;DHT22;2290;48.674;9.018;2022-07-01T05:04:54;15.80;99.90
4556;DHT22;2290;48.674;9.018;2022-07-01T05:07:19;15.90;99.90
4556;DHT22;2290;48.674;9.018;2022-07-01T05:09:55;16.00;99.90
4556;DHT22;2290;48.674;9.018;2022-07-01T05:12:21;16.00;99.90
4556;DHT22;2290;48.674;9.018;2022-07-01T05:14:47;16.00;99.90
4556;DHT22;2290;48.674;9.018;2022-07-01T05:17:13;16.00;99.90
4556;DHT22;2290;48.674;9.018;2022-07-01T05:19:38;16.00;99.90
4556;DHT22;2290;48.674;9.018;2022-07-01T05:22:23;15.90;99.90
4556;DHT22;2290;48.674;9.018;2022-07-01T05:24:48;15.80;99.90
4556;DHT22;2290;48.674;9.018;2022-07-01T05:27:14;15.70;99.90
4556;DHT22;2290;48.674;9.018;2022-07-01T05:29:39;15.90;99.90
4556;DHT22;2290;48.674;9.018;2022-07-01T05:32:05;15.90;99.90
4556;DHT22;2290;48.674;9.018;2022-07-01T05:34:31;15.90;99.90
4556;DHT22;2290;48.674;9.018;2022-07-01T05:36:57;15.90;99.90
4556;DHT22;2290;48.674;9.018;2022-07-01T05:39:23;15.90;99.90
4556;DHT22;2290;48.674;9.018;2022-07-01T05:41:48;16.00;99.90
4556;DHT22;2290;48.674;9.018;2022-07-01T05:44:14;16.00;99.90
4556;DHT22;2290;48.674;9.018;2022-07-01T05:46:40;16.00;99.90
4556;DHT22;2290;48.674;9.018;2022-07-01T05:49:05;16.10;99.90
4556;DHT22;2290;48.674;9.018;2022-07-01T05:51:31;16.20;99.90
4556;DHT22;2290;48.674;9.018;2022-07-01T05:53:57;16.30;99.90
4556;DHT22;2290;48.674;9.018;2022-07-01T05:56:24;16.30;99.90
4556;DHT22;2290;48.674;9.018;2022-07-01T05:58:50;16.30;99.90
4556;DHT22;2290;48.674;9.018;2022-07-01T06:01:16;16.20;99.90
4556;DHT22;2290;48.674;9.018;2022-07-01T06:03:42;16.30;99.90
4556;DHT22;2290;48.674;9.018;2022-07-01T06:06:07;16.30;99.90
4556;DHT22;2290;48.674;9.018;2022-07-01T06:08:33;16.30;99.90
4556;DHT22;2290;48.674;9.018;2022-07-01T06:10:59;16.20;99.90
4556;DHT22;2290;48.674;9.018;2022-07-01T06:13:26;16.20;99.90
4556;DHT22;2290;48.674;9.018;2022-07-01T06:15:54;16.20;99.90
4556;DHT22;2290;48.674;9.018;2022-07-01T06:18:20;16.20;99.90
4556;DHT22;2290;48.674;9.018;2022-07-01T06:20:45;16.10;99.90
4556;DHT22;2290;48.674;9.018;2022-07-01T06:23:11;16.10;99.90
4556;DHT22;2290;48.674;9.018;2022-07-01T06:25:37;16.10;99.90
4556;DHT22;2290;48.674;9.018;2022-07-01T06:28:03;16.00;99.90
4556;DHT22;2290;48.674;9.018;2022-07-01T06:30:30;15.90;99.90
4556;DHT22;2290;48.674;9.018;2022-07-01T06:32:56;15.90;99.90
4556;DHT22;2290;48.674;9.018;2022-07-01T06:35:22;16.40;99.90
4556;DHT22;2290;48.674;9.018;2022-07-01T06:37:49;15.80;99.90
4556;DHT22;2290;48.674;9.018;2022-07-01T06:40:14;15.80;99.90
4556;DHT22;2290;48.674;9.018;2022-07-01T06:42:40;15.70;99.90
4556;DHT22;2290;48.674;9.018;2022-07-01T06:45:06;15.70;99.90
4556;DHT22;2290;48.674;9.018;2022-07-01T06:47:31;15.70;99.90
4556;DHT22;2290;48.674;9.018;2022-07-01T06:49:58;16.70;99.90
4556;DHT22;2290;48.674;9.018;2022-07-01T06:52:24;15.70;99.90
4556;DHT22;2290;48.674;9.018;2022-07-01T06:54:50;15.70;99.90
4556;DHT22;2290;48.674;9.018;2022-07-01T06:57:16;15.80;99.90
4556;DHT22;2290;48.674;9.018;2022-07-01T06:59:41;15.90;99.90
4556;DHT22;2290;48.674;9.018;2022-07-01T07:02:07;15.80;99.90
4556;DHT22;2290;48.674;9.018;2022-07-01T07:04:33;15.80;99.90
4556;DHT22;2290;48.674;9.018;2022-07-01T07:07:00;15.70;99.90
4556;DHT22;2290;48.674;9.018;2022-07-01T07:09:26;15.70;99.90
4556;DHT22;2290;48.674;9.018;2022-07-01T07:11:51;15.70;99.90
4556;DHT22;2290;48.674;9.018;2022-07-01T07:14:17;15.80;99.90
4556;DHT22;2290;48.674;9.018;2022-07-01T07:16:42;15.70;99.90
4556;DHT22;2290;48.674;9.018;2022-07-01T07:19:08;15.60;99.90
4556;DHT22;2290;48.674;9.018;2022-07-01T07:21:35;16.60;99.90
4556;DHT22;2290;48.674;9.018;2022-07-01T07:24:00;15.80;99.90
4556;DHT22;2290;48.674;9.018;2022-07-01T07:26:26;15.80;99.90
4556;DHT22;2290;48.674;9.018;2022-07-01T07:28:53;16.40;99.90
4556;DHT22;2290;48.674;9.018;2022-07-01T07:31:18;16.10;99.90
4556;DHT22;2290;48.674;9.018;2022-07-01T07:33:46;16.00;99.90
4556;DHT22;2290;48.674;9.018;2022-07-01T07:36:11;16.00;99.90
4556;DHT22;2290;48.674;9.018;2022-07-01T07:38:38;16.10;99.90
4556;DHT22;2290;48.674;9.018;2022-07-01T07:41:03;16.10;99.90
4556;DHT22;2290;48.674;9.018;2022-07-01T07:43:29;16.20;99.90
4556;DHT22;2290;48.674;9.018;2022-07-01T07:45:55;16.20;99.90
4556;DHT22;2290;48.674;9.018;2022-07-01T07:48:22;16.80;99.90
4556;DHT22;2290;48.674;9.018;2022-07-01T07:50:47;17.40;99.90
4556;DHT22;2290;48.674;9.018;2022-07-01T07:53:13;16.10;99.90
4556;DHT22;2290;48.674;9.018;2022-07-01T07:55:39;16.20;99.90
4556;DHT22;2290;48.674;9.018;2022-07-01T07:58:05;16.20;99.90
4556;DHT22;2290;48.674;9.018;2022-07-01T08:00:31;16.20;99.90
4556;DHT22;2290;48.674;9.018;2022-07-01T08:02:57;16.20;99.90
4556;DHT22;2290;48.674;9.018;2022-07-01T08:05:22;16.20;99.90
4556;DHT22;2290;48.674;9.018;2022-07-01T08:07:48;16.20;99.90
4556;DHT22;2290;48.674;9.018;2022-07-01T08:10:13;16.30;99.90
4556;DHT22;2290;48.674;9.018;2022-07-01T08:12:40;16.50;99.90
4556;DHT22;2290;48.674;9.018;2022-07-01T08:15:07;16.40;99.90
4556;DHT22;2290;48.674;9.018;2022-07-01T08:17:32;16.40;99.90
4556;DHT22;2290;48.674;9.018;2022-07-01T08:19:58;16.40;99.90
4556;DHT22;2290;48.674;9.018;2022-07-01T08:22:24;16.40;99.90
4556;DHT22;2290;48.674;9.018;2022-07-01T08:24:49;16.40;99.90
4556;DHT22;2290;48.674;9.018;2022-07-01T08:27:15;16.40;99.90
4556;DHT22;2290;48.674;9.018;2022-07-01T08:29:41;16.40;99.90
4556;DHT22;2290;48.674;9.018;2022-07-01T08:32:08;16.40;99.90
4556;DHT22;2290;48.674;9.018;2022-07-01T08:34:34;16.40;99.90
4556;DHT22;2290;48.674;9.018;2022-07-01T08:37:01;16.40;99.90
4556;DHT22;2290;48.674;9.018;2022-07-01T08:39:27;16.30;99.90
4556;DHT22;2290;48.674;9.018;2022-07-01T08:41:53;16.30;99.90
4556;DHT22;2290;48.674;9.018;2022-07-01T08:44:18;16.30;99.90
4556;DHT22;2290;48.674;9.018;2022-07-01T08:46:44;16.20;99.90
4556;DHT22;2290;48.674;9.018;2022-07-01T08:49:09;16.20;99.90
4556;DHT22;2290;48.674;9.018;2022-07-01T08:51:36;16.10;99.90
4556;DHT22;2290;48.674;9.018;2022-07-01T08:54:02;16.10;99.90
4556;DHT22;2290;48.674;9.018;2022-07-01T08:56:28;15.90;99.90
4556;DHT22;2290;48.674;9.018;2022-07-01T08:59:22;15.70;99.90
4556;DHT22;2290;48.674;9.018;2022-07-01T09:01:58;15.80;99.90
4556;DHT22;2290;48.674;9.018;2022-07-01T09:04:24;15.70;99.90
4556;DHT22;2290;48.674;9.018;2022-07-01T09:06:50;15.70;99.90
4556;DHT22;2290;48.674;9.018;2022-07-01T09:09:21;15.50;99.90
4556;DHT22;2290;48.674;9.018;2022-07-01T09:11:52;15.50;99.90
4556;DHT22;2290;48.674;9.018;2022-07-01T09:14:26;15.60;99.90
4556;DHT22;2290;48.674;9.018;2022-07-01T09:16:54;15.70;99.90
4556;DHT22;2290;48.674;9.018;2022-07-01T09:19:22;15.80;99.90
4556;DHT22;2290;48.674;9.018;2022-07-01T09:21:55;15.80;99.90
4556;DHT22;2290;48.674;9.018;2022-07-01T09:24:42;15.90;99.90
4556;DHT22;2290;48.674;9.018;2022-07-01T09:27:13;16.00;99.90
4556;DHT22;2290;48.674;9.018;2022-07-01T09:29:47;16.20;99.90
4556;DHT22;2290;48.674;9.018;2022-07-01T09:32:17;16.00;99.90
4556;DHT22;2290;48.674;9.018;2022-07-01T09:34:47;16.00;99.90
4556;DHT22;2290;48.674;9.018;2022-07-01T09:37:15;16.10;99.90
4556;DHT22;2290;48.674;9.018;2022-07-01T09:39:43;16.20;99.90
4556;DHT22;2290;48.674;9.018;2022-07-01T09:42:10;16.20;99.90
4556;DHT22;2290;48.674;9.018;2022-07-01T09:44:36;16.20;99.90
4556;DHT22;2290;48.674;9.018;2022-07-01T09:47:16;16.30;99.90
4556;DHT22;2290;48.674;9.018;2022-07-01T09:49:41;16.30;99.90
4556;DHT22;2290;48.674;9.018;2022-07-01T09:52:07;16.40;99.90
4556;DHT22;2290;48.674;9.018;2022-07-01T09:54:33;16.40;99.90
4556;DHT22;2290;48.674;9.018;2022-07-01T09:56:58;16.50;99.90
4556;DHT22;2290;48.674;9.018;2022-07-01T09:59:24;16.60;99.90
4556;DHT22;2290;48.674;9.018;2022-07-01T10:01:50;16.60;99.90
4556;DHT22;2290;48.674;9.018;2022-07-01T10:04:16;16.60;99.90
4556;DHT22;2290;48.674;9.018;2022-07-01T10:06:52;16.70;99.90
4556;DHT22;2290;48.674;9.018;2022-07-01T10:14:39;16.80;99.90
4556;DHT22;2290;48.674;9.018;2022-07-01T10:17:07;16.70;99.90
4556;DHT22;2290;48.674;9.018;2022-07-01T10:19:32;16.60;99.90
4556;DHT22;2290;48.674;9.018;2022-07-01T10:22:28;16.80;99.90
4556;DHT22;2290;48.674;9.018;2022-07-01T10:25:28;16.90;99.90
4556;DHT22;2290;48.674;9.018;2022-07-01T10:27:42;16.80;99.90
4556;DHT22;2290;48.674;9.018;2022-07-01T10:30:13;16.80;99.90
4556;DHT22;2290;48.674;9.018;2022-07-01T10:32:59;17.00;99.90
4556;DHT22;2290;48.674;9.018;2022-07-01T10:35:26;17.10;99.90
4556;DHT22;2290;48.674;9.018;2022-07-01T10:38:01;17.40;99.90
4556;DHT22;2290;48.674;9.018;2022-07-01T10:40:46;17.50;99.90
4556;DHT22;2290;48.674;9.018;2022-07-01T10:43:34;17.60;99.90
4556;DHT22;2290;48.674;9.018;2022-07-01T10:46:00;17.90;99.90
4556;DHT22;2290;48.674;9.018;2022-07-01T10:48:26;18.20;99.90
4556;DHT22;2290;48.674;9.018;2022-07-01T10:50:55;18.30;99.90
4556;DHT22;2290;48.674;9.018;2022-07-01T10:53:21;18.30;99.90
4556;DHT22;2290;48.674;9.018;2022-07-01T10:55:50;18.20;99.90
4556;DHT22;2290;48.674;9.018;2022-07-01T10:58:15;18.10;99.90
4556;DHT22;2290;48.674;9.018;2022-07-01T11:00:47;18.30;99.90
4556;DHT22;2290;48.674;9.018;2022-07-01T11:03:18;18.40;99.90
4556;DHT22;2290;48.674;9.018;2022-07-01T11:05:46;18.40;99.90
4556;DHT22;2290;48.674;9.018;2022-07-01T11:08:12;18.30;99.90
4556;DHT22;2290;48.674;9.018;2022-07-01T11:10:39;18.40;99.90
4556;DHT22;2290;48.674;9.018;2022-07-01T11:13:05;18.50;99.90
4556;DHT22;2290;48.674;9.018;2022-07-01T11:15:31;18.60;99.90
4556;DHT22;2290;48.674;9.018;2022-07-01T11:17:58;18.60;99.90
4556;DHT22;2290;48.674;9.018;2022-07-01T11:20:25;18.60;99.90
4556;DHT22;2290;48.674;9.018;2022-07-01T11:22:51;18.70;99.90
4556;DHT22;2290;48.674;9.018;2022-07-01T11:25:19;18.70;99.90
4556;DHT22;2290;48.674;9.018;2022-07-01T11:27:47;18.60;99.90
4556;DHT22;2290;48.674;9.018;2022-07-01T11:30:13;18.60;99.90
4556;DHT22;2290;48.674;9.018;2022-07-01T11:32:44;18.20;99.90
4556;DHT22;2290;48.674;9.018;2022-07-01T11:35:15;18.00;99.90
4556;DHT22;2290;48.674;9.018;2022-07-01T11:38:14;18.00;99.90
4556;DHT22;2290;48.674;9.018;2022-07-01T11:41:04;17.90;99.90
4556;DHT22;2290;48.674;9.018;2022-07-01T11:43:39;17.90;99.90
4556;DHT22;2290;48.674;9.018;2022-07-01T11:46:06;17.90;99.90
4556;DHT22;2290;48.674;9.018;2022-07-01T11:48:38;18.10;99.90
4556;DHT22;2290;48.674;9.018;2022-07-01T11:51:24;18.20;99.90
4556;DHT22;2290;48.674;9.018;2022-07-01T11:53:51;18.40;99.90
4556;DHT22;2290;48.674;9.018;2022-07-01T11:56:31;18.50;99.90
4556;DHT22;2290;48.674;9.018;2022-07-01T11:58:59;18.90;99.90
4556;DHT22;2290;48.674;9.018;2022-07-01T12:01:32;19.00;99.90
4556;DHT22;2290;48.674;9.018;2022-07-01T12:03:59;19.10;99.90
4556;DHT22;2290;48.674;9.018;2022-07-01T12:06:26;19.40;99.90
4556;DHT22;2290;48.674;9.018;2022-07-01T12:08:53;19.20;99.90
4556;DHT22;2290;48.674;9.018;2022-07-01T12:11:20;19.20;99.90
4556;DHT22;2290;48.674;9.018;2022-07-01T12:13:48;18.90;99.90
4556;DHT22;2290;48.674;9.018;2022-07-01T12:16:14;19.00;99.90
4556;DHT22;2290;48.674;9.018;2022-07-01T12:19:01;18.90;99.90
4556;DHT22;2290;48.674;9.018;2022-07-01T12:21:29;18.80;99.90
4556;DHT22;2290;48.674;9.018;2022-07-01T12:24:06;19.10;99.90
4556;DHT22;2290;48.674;9.018;2022-07-01T12:26:32;18.80;99.90
4556;DHT22;2290;48.674;9.018;2022-07-01T12:28:57;18.80;99.90
4556;DHT22;2290;48.674;9.018;2022-07-01T12:31:24;19.00;99.90
4556;DHT22;2290;48.674;9.018;2022-07-01T12:33:51;19.10;99.90
4556;DHT22;2290;48.674;9.018;2022-07-01T12:36:17;19.20;99.90
4556;DHT22;2290;48.674;9.018;2022-07-01T12:38:43;19.30;99.90
4556;DHT22;2290;48.674;9.018;2022-07-01T12:41:29;19.40;99.90
4556;DHT22;2290;48.674;9.018;2022-07-01T12:43:55;19.60;99.90
4556;DHT22;2290;48.674;9.018;2022-07-01T12:46:30;19.70;99.90
4556;DHT22;2290;48.674;9.018;2022-07-01T12:48:57;19.90;99.90
4556;DHT22;2290;48.674;9.018;2022-07-01T12:51:32;20.30;99.90
4556;DHT22;2290;48.674;9.018;2022-07-01T12:54:00;20.30;99.90
4556;DHT22;2290;48.674;9.018;2022-07-01T12:56:28;20.40;99.90
4556;DHT22;2290;48.674;9.018;2022-07-01T12:58:54;20.50;99.90
4556;DHT22;2290;48.674;9.018;2022-07-01T13:01:20;20.30;99.90
4556;DHT22;2290;48.674;9.018;2022-07-01T13:03:47;20.40;99.90
4556;DHT22;2290;48.674;9.018;2022-07-01T13:06:12;20.40;99.90
4556;DHT22;2290;48.674;9.018;2022-07-01T13:08:38;20.50;99.90
4556;DHT22;2290;48.674;9.018;2022-07-01T13:11:04;20.70;99.90
4556;DHT22;2290;48.674;9.018;2022-07-01T13:13:32;20.80;99.90
4556;DHT22;2290;48.674;9.018;2022-07-01T13:15:58;20.80;99.90
4556;DHT22;2290;48.674;9.018;2022-07-01T13:18:24;20.80;99.90
4556;DHT22;2290;48.674;9.018;2022-07-01T13:20:50;20.70;99.90
4556;DHT22;2290;48.674;9.018;2022-07-01T13:23:15;20.70;99.90
4556;DHT22;2290;48.674;9.018;2022-07-01T13:25:41;20.90;99.90
4556;DHT22;2290;48.674;9.018;2022-07-01T13:28:07;20.60;99.90
4556;DHT22;2290;48.674;9.018;2022-07-01T13:30:32;21.50;99.90
4556;DHT22;2290;48.674;9.018;2022-07-01T13:32:58;20.60;99.90
4556;DHT22;2290;48.674;9.018;2022-07-01T13:35:24;20.50;99.90
4556;DHT22;2290;48.674;9.018;2022-07-01T13:37:51;20.50;99.90
4556;DHT22;2290;48.674;9.018;2022-07-01T13:40:17;20.50;99.90
4556;DHT22;2290;48.674;9.018;2022-07-01T13:42:43;20.50;99.90
4556;DHT22;2290;48.674;9.018;2022-07-01T13:45:09;20.60;99.90
4556;DHT22;2290;48.674;9.018;2022-07-01T13:47:36;20.60;99.90
4556;DHT22;2290;48.674;9.018;2022-07-01T13:50:02;20.60;99.90
4556;DHT22;2290;48.674;9.018;2022-07-01T13:52:28;20.70;99.90
4556;DHT22;2290;48.674;9.018;2022-07-01T13:54:55;20.50;99.90
4556;DHT22;2290;48.674;9.018;2022-07-01T13:57:21;20.50;99.90
4556;DHT22;2290;48.674;9.018;2022-07-01T13:59:46;20.60;99.90
4556;DHT22;2290;48.674;9.018;2022-07-01T14:04:38;20.50;99.90
4556;DHT22;2290;48.674;9.018;2022-07-01T14:07:04;20.70;99.90
4556;DHT22;2290;48.674;9.018;2022-07-01T14:09:30;20.80;99.90
4556;DHT22;2290;48.674;9.018;2022-07-01T14:11:55;20.90;99.90
4556;DHT22;2290;48.674;9.018;2022-07-01T14:14:21;20.90;99.90
4556;DHT22;2290;48.674;9.018;2022-07-01T14:16:47;21.10;99.90
4556;DHT22;2290;48.674;9.018;2022-07-01T14:19:12;21.70;99.90
4556;DHT22;2290;48.674;9.018;2022-07-01T14:21:38;22.10;99.90
4556;DHT22;2290;48.674;9.018;2022-07-01T14:24:04;21.50;99.90
4556;DHT22;2290;48.674;9.018;2022-07-01T14:26:30;21.50;99.90
4556;DHT22;2290;48.674;9.018;2022-07-01T14:28:55;21.70;99.90
4556;DHT22;2290;48.674;9.018;2022-07-01T14:31:21;21.80;99.90
4556;DHT22;2290;48.674;9.018;2022-07-01T14:33:46;22.10;99.90
4556;DHT22;2290;48.674;9.018;2022-07-01T14:36:13;22.60;99.90
4556;DHT22;2290;48.674;9.018;2022-07-01T14:38:39;22.80;99.90
4556;DHT22;2290;48.674;9.018;2022-07-01T14:41:05;23.00;99.90
4556;DHT22;2290;48.674;9.018;2022-07-01T14:43:30;23.10;99.90
4556;DHT22;2290;48.674;9.018;2022-07-01T14:45:57;23.20;99.90
4556;DHT22;2290;48.674;9.018;2022-07-01T14:48:22;23.50;99.90
4556;DHT22;2290;48.674;9.018;2022-07-01T14:50:48;23.60;99.90
4556;DHT22;2290;48.674;9.018;2022-07-01T14:53:14;23.70;99.90
4556;DHT22;2290;48.674;9.018;2022-07-01T14:55:39;23.70;99.90
4556;DHT22;2290;48.674;9.018;2022-07-01T14:58:05;23.80;99.90
4556;DHT22;2290;48.674;9.018;2022-07-01T15:00:31;24.00;99.90
4556;DHT22;2290;48.674;9.018;2022-07-01T15:03:02;24.20;99.90
4556;DHT22;2290;48.674;9.018;2022-07-01T15:05:28;24.00;99.90
4556;DHT22;2290;48.674;9.018;2022-07-01T15:07:54;23.60;99.90
4556;DHT22;2290;48.674;9.018;2022-07-01T15:10:19;23.40;99.90
4556;DHT22;2290;48.674;9.018;2022-07-01T15:12:45;23.20;99.90
4556;DHT22;2290;48.674;9.018;2022-07-01T15:15:11;23.10;99.90
4556;DHT22;2290;48.674;9.018;2022-07-01T15:17:45;23.10;99.90
4556;DHT22;2290;48.674;9.018;2022-07-01T15:20:12;23.00;99.90
4556;DHT22;2290;48.674;9.018;2022-07-01T15:22:40;22.80;99.90
4556;DHT22;2290;48.674;9.018;2022-07-01T15:25:06;22.50;99.90
4556;DHT22;2290;48.674;9.018;2022-07-01T15:27:32;22.50;99.90
4556;DHT22;2290;48.674;9.018;2022-07-01T15:29:57;22.40;99.90
4556;DHT22;2290;48.674;9.018;2022-07-01T15:32:23;22.50;99.90
4556;DHT22;2290;48.674;9.018;2022-07-01T15:34:49;22.50;99.90
4556;DHT22;2290;48.674;9.018;2022-07-01T15:37:14;22.60;99.90
4556;DHT22;2290;48.674;9.018;2022-07-01T15:39:40;22.70;99.90
4556;DHT22;2290;48.674;9.018;2022-07-01T15:42:06;22.90;99.90
4556;DHT22;2290;48.674;9.018;2022-07-01T15:44:32;23.10;99.90
4556;DHT22;2290;48.674;9.018;2022-07-01T15:46:58;23.50;99.90
4556;DHT22;2290;48.674;9.018;2022-07-01T15:49:44;23.90;99.90
4556;DHT22;2290;48.674;9.018;2022-07-01T15:52:09;24.00;99.90
4556;DHT22;2290;48.674;9.018;2022-07-01T15:54:36;24.30;99.90
4556;DHT22;2290;48.674;9.018;2022-07-01T15:57:02;24.70;99.90
4556;DHT22;2290;48.674;9.018;2022-07-01T15:59:27;24.50;99.90
4556;DHT22;2290;48.674;9.018;2022-07-01T16:01:54;24.50;99.90
4556;DHT22;2290;48.674;9.018;2022-07-01T16:04:21;24.60;99.90
4556;DHT22;2290;48.674;9.018;2022-07-01T16:06:48;24.60;99.90
4556;DHT22;2290;48.674;9.018;2022-07-01T16:09:16;24.40;99.90
4556;DHT22;2290;48.674;9.018;2022-07-01T16:11:42;24.40;99.90